RCH4 YSCB-YWLM
Flight info
| Callsign | RCH4 |
|---|---|
| Flight time | N/A |
| Altitude | 31000 |
| Route | CB W423 CULIN Y59 TESAT H252 WLM |
| Aircraft | B1/H-SDFGRW/L |
Departure
| Time | 2026-05-06 10:03 |
|---|---|
| Airport | Canberra Airport (YSCB) |
Arrival
| Time | N/A |
|---|---|
| Airport | Newcastle Airport (YWLM) |
| Time | Latitude | Longitude | Altitude | Speed | Heading |
|---|---|---|---|---|---|
| 2026-05-06 09:26 | -35.30294 | 149.19810 | 1884 ft | 0 kts | 36° |
| 2026-05-06 09:51 | -35.30291 | 149.19811 | 1877 ft | 1 kts | 20° |
| 2026-05-06 09:51 | -35.30283 | 149.19809 | 1877 ft | 2 kts | 332° |
| 2026-05-06 09:51 | -35.30279 | 149.19800 | 1879 ft | 2 kts | 285° |
| 2026-05-06 09:52 | -35.30269 | 149.19731 | 1885 ft | 14 kts | 279° |
| 2026-05-06 09:52 | -35.30254 | 149.19631 | 1878 ft | 7 kts | 285° |
| 2026-05-06 09:52 | -35.30246 | 149.19605 | 1880 ft | 0 kts | 292° |
| 2026-05-06 09:53 | -35.30221 | 149.19527 | 1885 ft | 13 kts | 290° |
| 2026-05-06 09:53 | -35.30184 | 149.19406 | 1885 ft | 19 kts | 290° |
| 2026-05-06 09:53 | -35.30171 | 149.19259 | 1882 ft | 15 kts | 224° |
| 2026-05-06 09:53 | -35.30280 | 149.19239 | 1879 ft | 21 kts | 179° |
| 2026-05-06 09:54 | -35.30425 | 149.19239 | 1879 ft | 20 kts | 180° |
| 2026-05-06 09:54 | -35.30558 | 149.19239 | 1885 ft | 18 kts | 180° |
| 2026-05-06 09:54 | -35.30706 | 149.19240 | 1885 ft | 23 kts | 179° |
| 2026-05-06 09:54 | -35.30861 | 149.19240 | 1885 ft | 22 kts | 180° |
| 2026-05-06 09:55 | -35.31006 | 149.19241 | 1885 ft | 20 kts | 180° |
| 2026-05-06 09:55 | -35.31138 | 149.19241 | 1880 ft | 18 kts | 180° |
| 2026-05-06 09:55 | -35.31257 | 149.19239 | 1885 ft | 16 kts | 180° |
| 2026-05-06 09:55 | -35.31363 | 149.19240 | 1880 ft | 14 kts | 179° |
| 2026-05-06 09:56 | -35.31493 | 149.19240 | 1883 ft | 21 kts | 180° |
| 2026-05-06 09:56 | -35.31634 | 149.19240 | 1885 ft | 19 kts | 180° |
| 2026-05-06 09:56 | -35.31763 | 149.19241 | 1878 ft | 18 kts | 180° |
| 2026-05-06 09:56 | -35.31854 | 149.19241 | 1883 ft | 10 kts | 180° |
| 2026-05-06 09:57 | -35.31917 | 149.19241 | 1885 ft | 8 kts | 177° |
| 2026-05-06 09:57 | -35.31940 | 149.19245 | 1880 ft | 0 kts | 165° |
| 2026-05-06 09:58 | -35.31958 | 149.19254 | 1880 ft | 7 kts | 154° |
| 2026-05-06 09:58 | -35.31985 | 149.19278 | 1881 ft | 4 kts | 135° |
| 2026-05-06 09:58 | -35.31990 | 149.19285 | 1882 ft | 0 kts | 129° |
| 2026-05-06 10:00 | -35.32012 | 149.19376 | 1880 ft | 13 kts | 89° |
| 2026-05-06 10:00 | -35.32012 | 149.19382 | 1881 ft | 0 kts | 89° |
| 2026-05-06 10:01 | -35.32012 | 149.19383 | 1881 ft | 0 kts | 89° |
| 2026-05-06 10:02 | -35.31995 | 149.19437 | 1881 ft | 12 kts | 35° |
| 2026-05-06 10:02 | -35.31967 | 149.19445 | 1880 ft | 0 kts | 1° |
| 2026-05-06 10:02 | -35.31950 | 149.19446 | 1883 ft | 13 kts | 1° |
| 2026-05-06 10:02 | -35.31891 | 149.19447 | 1885 ft | 37 kts | 360° |
| 2026-05-06 10:03 | -35.31317 | 149.19445 | 1885 ft | 125 kts | 360° |
| 2026-05-06 10:03 | -35.30222 | 149.19442 | 1884 ft | 186 kts | 360° |
| 2026-05-06 10:03 | -35.28856 | 149.19441 | 2333 ft | 198 kts | 0° |
| 2026-05-06 10:03 | -35.27436 | 149.19521 | 2960 ft | 231 kts | 1° |
| 2026-05-06 10:04 | -35.25562 | 149.19670 | 3060 ft | 290 kts | 2° |
| 2026-05-06 10:04 | -35.23553 | 149.19911 | 3587 ft | 277 kts | 2° |
| 2026-05-06 10:04 | -35.21693 | 149.20192 | 3644 ft | 264 kts | 4° |
| 2026-05-06 10:04 | -35.19976 | 149.20465 | 4235 ft | 229 kts | 3° |
| 2026-05-06 10:05 | -35.18263 | 149.20703 | 5048 ft | 271 kts | 2° |
| 2026-05-06 10:05 | -35.16389 | 149.20948 | 5799 ft | 263 kts | 2° |
| 2026-05-06 10:05 | -35.14523 | 149.21201 | 6574 ft | 274 kts | 2° |
| 2026-05-06 10:05 | -35.12618 | 149.21461 | 7310 ft | 276 kts | 2° |
| 2026-05-06 10:06 | -35.10695 | 149.21727 | 8063 ft | 281 kts | 2° |
| 2026-05-06 10:06 | -35.08741 | 149.21999 | 8821 ft | 285 kts | 2° |
| 2026-05-06 10:06 | -35.06763 | 149.22297 | 9344 ft | 296 kts | 6° |
| 2026-05-06 10:06 | -35.04904 | 149.23466 | 9590 ft | 314 kts | 34° |
| 2026-05-06 10:07 | -35.03092 | 149.24973 | 9841 ft | 311 kts | 27° |
| 2026-05-06 10:07 | -35.01143 | 149.26057 | 10050 ft | 310 kts | 19° |
| 2026-05-06 10:07 | -34.99052 | 149.27141 | 10422 ft | 343 kts | 19° |
| 2026-05-06 10:07 | -34.96832 | 149.28264 | 11053 ft | 343 kts | 19° |
| 2026-05-06 10:08 | -34.94605 | 149.29360 | 11800 ft | 348 kts | 18° |
| 2026-05-06 10:08 | -34.92342 | 149.30455 | 12560 ft | 350 kts | 18° |
| 2026-05-06 10:08 | -34.90074 | 149.31546 | 13346 ft | 353 kts | 17° |
| 2026-05-06 10:08 | -34.87772 | 149.32638 | 14111 ft | 356 kts | 17° |
| 2026-05-06 10:09 | -34.85455 | 149.33719 | 14821 ft | 359 kts | 17° |
| 2026-05-06 10:09 | -34.83097 | 149.34803 | 15547 ft | 365 kts | 16° |
| 2026-05-06 10:09 | -34.80721 | 149.35888 | 16292 ft | 367 kts | 16° |
| 2026-05-06 10:09 | -34.78307 | 149.36991 | 17067 ft | 374 kts | 16° |
| 2026-05-06 10:10 | -34.75969 | 149.38409 | 17817 ft | 384 kts | 34° |
| 2026-05-06 10:10 | -34.74059 | 149.40761 | 18623 ft | 398 kts | 47° |
| 2026-05-06 10:10 | -34.72432 | 149.43492 | 19342 ft | 401 kts | 56° |
| 2026-05-06 10:10 | -34.71059 | 149.46488 | 20070 ft | 409 kts | 57° |
| 2026-05-06 10:11 | -34.69676 | 149.49492 | 20799 ft | 410 kts | 58° |
| 2026-05-06 10:11 | -34.68295 | 149.52552 | 21556 ft | 412 kts | 58° |
| 2026-05-06 10:11 | -34.66920 | 149.55634 | 22340 ft | 420 kts | 58° |
| 2026-05-06 10:11 | -34.65537 | 149.58754 | 23142 ft | 420 kts | 58° |
| 2026-05-06 10:12 | -34.64141 | 149.61916 | 23916 ft | 428 kts | 58° |
| 2026-05-06 10:12 | -34.62758 | 149.65059 | 24603 ft | 432 kts | 58° |
| 2026-05-06 10:12 | -34.61332 | 149.68302 | 25294 ft | 435 kts | 58° |
| 2026-05-06 10:12 | -34.59898 | 149.71569 | 26015 ft | 445 kts | 58° |
| 2026-05-06 10:13 | -34.58440 | 149.74893 | 26761 ft | 447 kts | 58° |
| 2026-05-06 10:13 | -34.56964 | 149.78255 | 27535 ft | 456 kts | 58° |
| 2026-05-06 10:13 | -34.55462 | 149.81676 | 28330 ft | 463 kts | 58° |
| 2026-05-06 10:13 | -34.53941 | 149.85140 | 29139 ft | 467 kts | 58° |
| 2026-05-06 10:14 | -34.52403 | 149.88639 | 29983 ft | 473 kts | 58° |
| 2026-05-06 10:14 | -34.50844 | 149.92182 | 30609 ft | 482 kts | 58° |
| 2026-05-06 10:14 | -34.49236 | 149.95802 | 30878 ft | 492 kts | 57° |
| 2026-05-06 10:14 | -34.47627 | 149.99421 | 31006 ft | 484 kts | 57° |
| 2026-05-06 10:15 | -34.44418 | 150.06647 | 31082 ft | 487 kts | 57° |
| 2026-05-06 10:15 | -34.42789 | 150.10331 | 31087 ft | 508 kts | 58° |
| 2026-05-06 10:15 | -34.41287 | 150.13751 | 31102 ft | 499 kts | 58° |
| 2026-05-06 10:16 | -34.38014 | 150.21196 | 31113 ft | 499 kts | 58° |
| 2026-05-06 10:16 | -34.34712 | 150.28639 | 31108 ft | 499 kts | 57° |
| 2026-05-06 10:17 | -34.31389 | 150.36084 | 31099 ft | 501 kts | 57° |